createdAt,value
2023-01-24T05:04:22.796Z,96.69
2023-01-24T05:08:34.357Z,97.38
2023-01-24T05:12:45.926Z,96.67
2023-01-24T05:17:06.579Z,96.82
2023-01-24T05:21:20.236Z,96.80
2023-01-24T05:25:31.996Z,96.87
2023-01-24T05:29:43.768Z,97.31
2023-01-24T05:33:55.327Z,97.00
2023-01-24T05:38:06.903Z,96.81
2023-01-24T05:42:20.672Z,97.16
2023-01-24T05:46:35.304Z,97.05
2023-01-24T05:50:59.925Z,97.80
2023-01-24T05:55:11.629Z,97.51
2023-01-24T05:59:28.747Z,97.28
2023-01-24T06:03:42.345Z,97.46
2023-01-24T06:07:54.610Z,97.25
2023-01-24T06:12:06.178Z,97.59
2023-01-24T06:16:20.924Z,97.26
2023-01-24T06:20:33.080Z,98.15
2023-01-24T06:24:44.911Z,97.81
2023-01-24T06:29:11.534Z,97.73
2023-01-24T06:33:53.518Z,98.44
2023-01-24T06:38:05.296Z,98.27
2023-01-24T06:42:21.539Z,98.24
2023-01-24T06:46:32.991Z,98.20
2023-01-24T06:50:44.510Z,98.20
2023-01-24T06:54:56.039Z,98.15
2023-01-24T06:59:07.469Z,98.40
2023-01-24T07:03:20.063Z,98.84
2023-01-24T07:07:32.438Z,98.71
2023-01-24T07:11:43.899Z,98.59
2023-01-24T07:15:55.388Z,98.84
2023-01-24T07:20:07.763Z,98.89
2023-01-24T07:24:25.261Z,99.19
2023-01-24T07:28:36.704Z,99.03
2023-01-24T07:32:48.141Z,98.69
2023-01-24T07:36:59.630Z,99.25
2023-01-24T07:41:11.429Z,99.33
2023-01-24T07:45:23.240Z,98.47
2023-01-24T07:49:34.808Z,98.94
2023-01-24T07:53:48.176Z,98.94
2023-01-24T07:58:01.629Z,98.25
2023-01-24T08:02:13.235Z,98.82
2023-01-24T08:06:25.399Z,99.14
2023-01-24T08:10:37.050Z,99.26
2023-01-24T08:14:48.587Z,99.06
2023-01-24T08:19:00.859Z,99.04
2023-01-24T08:23:12.305Z,98.77
2023-01-24T08:27:23.860Z,99.03
2023-01-24T08:31:35.430Z,99.21
2023-01-24T08:35:47.420Z,98.85
2023-01-24T08:39:58.863Z,98.88
2023-01-24T08:44:10.880Z,98.68
2023-01-24T08:48:22.339Z,97.44
2023-01-24T08:52:33.755Z,98.45
2023-01-24T08:56:45.257Z,98.07
2023-01-24T09:00:56.679Z,100.00
2023-01-24T09:05:09.494Z,98.36
2023-01-24T09:09:21.016Z,97.60
2023-01-24T09:13:32.633Z,97.62
2023-01-24T09:17:45.223Z,97.66
2023-01-24T09:21:57.811Z,96.75
2023-01-24T09:26:09.420Z,97.04
2023-01-24T09:30:22.672Z,97.03
2023-01-24T09:34:34.164Z,97.46
2023-01-24T09:38:56.431Z,96.69
2023-01-24T09:43:30.456Z,97.03
2023-01-24T09:47:50.696Z,96.63
2023-01-24T09:52:07.357Z,96.76
2023-01-24T09:56:31.804Z,96.09
2023-01-24T10:00:43.482Z,96.01
2023-01-24T10:04:55.043Z,96.28
2023-01-24T10:09:18.843Z,95.80
2023-01-24T10:13:56.432Z,96.24
2023-01-24T10:18:38.438Z,96.49
2023-01-24T10:23:08.715Z,96.98
2023-01-24T10:27:37.635Z,96.23
2023-01-24T10:32:18.315Z,96.52
2023-01-24T10:36:44.250Z,96.64
2023-01-24T10:41:20.314Z,96.50
2023-01-24T10:45:46.731Z,96.26
2023-01-24T10:50:05.285Z,96.02
2023-01-24T10:54:23.451Z,96.91
2023-01-24T10:58:42.977Z,96.26
2023-01-24T11:03:00.310Z,95.97
2023-01-24T11:07:29.149Z,95.92
2023-01-24T11:11:50.781Z,95.88
2023-01-24T11:16:22.284Z,95.22
2023-01-24T11:20:35.973Z,95.74
2023-01-24T11:24:47.766Z,95.28
2023-01-24T11:29:15.628Z,95.53
2023-01-24T11:33:30.103Z,96.24
2023-01-24T11:38:12.596Z,95.42
2023-01-24T11:42:35.808Z,95.17
2023-01-24T11:47:11.019Z,95.46
2023-01-24T11:51:31.707Z,95.37
2023-01-24T11:56:13.834Z,95.43
2023-01-24T12:00:37.506Z,96.08
2023-01-24T12:05:02.176Z,95.86
2023-01-24T12:09:22.008Z,95.80
2023-01-24T12:13:45.442Z,95.28
2023-01-24T12:17:59.815Z,96.16
2023-01-24T12:22:17.680Z,96.09
2023-01-24T12:26:37.670Z,96.14
2023-01-24T12:30:54.555Z,95.71
2023-01-24T12:35:32.719Z,96.29
2023-01-24T12:39:59.160Z,96.42
2023-01-24T12:44:27.911Z,96.40
2023-01-24T12:48:55.366Z,96.90
2023-01-24T12:53:22.297Z,96.32
2023-01-24T12:57:45.923Z,95.94
2023-01-24T13:02:35.075Z,95.77
2023-01-24T13:07:24.330Z,95.93
2023-01-24T13:11:46.892Z,95.74
2023-01-24T13:16:14.795Z,95.54
2023-01-24T13:20:41.981Z,95.42
2023-01-24T13:25:12.158Z,95.00
2023-01-24T13:29:33.602Z,95.50
2023-01-24T13:33:50.628Z,95.58
2023-01-24T13:38:23.160Z,95.71
2023-01-24T13:42:38.144Z,95.81
2023-01-24T13:47:17.830Z,95.87
2023-01-24T13:51:35.746Z,95.98
2023-01-24T13:56:01.953Z,96.58
2023-01-24T14:00:13.454Z,96.35
2023-01-24T14:04:43.930Z,96.54
2023-01-24T14:09:01.975Z,96.30
2023-01-24T14:13:44.742Z,96.90
2023-01-24T14:17:56.793Z,97.21
2023-01-24T14:22:11.275Z,97.64
2023-01-24T14:26:28.019Z,97.09
2023-01-24T14:30:43.639Z,96.97
2023-01-24T14:35:13.165Z,97.39
2023-01-24T14:39:26.783Z,97.01
2023-01-24T14:43:39.265Z,96.78
2023-01-24T14:47:51.901Z,97.38
2023-01-24T14:52:25.043Z,97.29
2023-01-24T14:56:40.596Z,97.87
2023-01-24T15:00:54.631Z,97.47
2023-01-24T15:05:23.280Z,97.58
2023-01-24T15:09:34.747Z,97.89
2023-01-24T15:13:50.792Z,97.80
2023-01-24T15:18:05.730Z,97.33
2023-01-24T15:22:22.263Z,97.44
2023-01-24T15:26:38.134Z,97.39
2023-01-24T15:30:58.507Z,97.98
2023-01-24T15:35:31.946Z,97.98
2023-01-24T15:39:44.602Z,98.38
2023-01-24T15:44:08.008Z,98.43
2023-01-24T15:48:22.546Z,98.30
2023-01-24T15:52:33.970Z,98.41
2023-01-24T15:56:52.330Z,98.26
2023-01-24T16:01:05.409Z,98.73
2023-01-24T16:05:19.565Z,99.05
2023-01-24T16:09:30.978Z,98.93
2023-01-24T16:13:48.764Z,98.81
2023-01-24T16:18:00.216Z,99.28
2023-01-24T16:22:11.947Z,99.23
2023-01-24T16:26:26.905Z,100.00
2023-01-24T16:30:38.438Z,99.68
2023-01-24T16:34:50.740Z,99.67
2023-01-24T16:39:02.636Z,99.95
2023-01-24T16:43:20.015Z,100.00
2023-01-24T16:47:31.533Z,100.00
2023-01-24T16:51:47.290Z,99.98
2023-01-24T16:55:58.765Z,100.00
2023-01-24T17:00:13.347Z,100.00
2023-01-24T17:04:25.323Z,99.77
2023-01-24T17:08:38.237Z,99.83
2023-01-24T17:12:50.308Z,100.00
2023-01-24T17:17:04.570Z,100.00
2023-01-24T17:21:17.380Z,100.00
2023-01-24T17:25:32.573Z,100.00
2023-01-24T17:29:44.964Z,100.00
2023-01-24T17:33:56.501Z,100.00
2023-01-24T17:38:08.097Z,100.00
2023-01-24T17:42:19.568Z,100.00
2023-01-24T17:46:31.089Z,100.00
2023-01-24T17:50:42.628Z,100.00
2023-01-24T17:54:54.209Z,100.00
2023-01-24T17:59:06.037Z,100.00
2023-01-24T18:03:17.484Z,100.00
2023-01-24T18:07:29.016Z,100.00
2023-01-24T18:11:40.629Z,100.00
2023-01-24T18:16:02.598Z,100.00
2023-01-24T18:20:14.877Z,100.00
2023-01-24T18:24:26.485Z,100.00
2023-01-24T18:28:38.029Z,100.00
2023-01-24T18:32:49.524Z,100.00
2023-01-24T18:37:01.092Z,100.00
2023-01-24T18:41:13.712Z,100.00
2023-01-24T18:45:25.277Z,100.00
2023-01-24T18:49:36.889Z,100.00
2023-01-24T18:53:52.355Z,100.00
2023-01-24T18:58:03.998Z,100.00
2023-01-24T19:02:15.621Z,100.00
2023-01-24T19:06:33.000Z,100.00
2023-01-24T19:10:44.588Z,100.00
2023-01-24T19:14:56.081Z,100.00
2023-01-24T19:19:10.748Z,100.00
2023-01-24T19:23:22.223Z,100.00
2023-01-24T19:27:33.715Z,100.00
2023-01-24T19:31:45.238Z,100.00
2023-01-24T19:35:57.156Z,100.00
2023-01-24T19:40:09.294Z,100.00
2023-01-24T19:44:22.463Z,100.00
2023-01-24T19:48:34.173Z,100.00
2023-01-24T19:52:45.720Z,100.00
2023-01-24T19:56:57.338Z,100.00
2023-01-24T20:01:10.169Z,100.00
2023-01-24T20:05:21.762Z,100.00
2023-01-24T20:09:33.452Z,100.00
2023-01-24T20:13:45.414Z,100.00
2023-01-24T20:17:57.682Z,100.00
2023-01-24T20:22:09.400Z,100.00
2023-01-24T20:26:21.805Z,100.00
2023-01-24T20:30:33.420Z,100.00
2023-01-24T20:34:46.731Z,100.00
2023-01-24T20:38:58.240Z,100.00
2023-01-24T20:43:09.797Z,100.00
2023-01-24T20:47:21.304Z,100.00
2023-01-24T20:51:32.962Z,100.00
2023-01-24T20:55:46.653Z,100.00
2023-01-24T20:59:58.148Z,100.00
2023-01-24T21:04:10.074Z,100.00
2023-01-24T21:08:21.551Z,100.00
2023-01-24T21:12:33.526Z,100.00
2023-01-24T21:16:45.120Z,100.00
2023-01-24T21:20:57.409Z,100.00
2023-01-24T21:25:09.696Z,100.00
2023-01-24T21:29:21.434Z,100.00
2023-01-24T21:33:33.291Z,100.00
2023-01-24T21:37:44.835Z,100.00
2023-01-24T21:41:56.628Z,100.00
2023-01-24T21:46:08.395Z,100.00
2023-01-24T21:50:20.003Z,100.00
2023-01-24T21:54:36.738Z,100.00
2023-01-24T21:58:48.231Z,100.00
2023-01-24T22:03:18.333Z,100.00
2023-01-24T22:07:31.612Z,100.00
2023-01-24T22:11:44.120Z,100.00
2023-01-24T22:15:55.867Z,100.00
2023-01-24T22:20:18.756Z,100.00
2023-01-24T22:24:42.601Z,100.00
2023-01-24T22:28:55.324Z,100.00
